sensor_id;sensor_type;location;lat;lon;timestamp;pressure;altitude;pressure_sealevel;temperature;humidity
71299;BME280;59083;47.974;21.722;2022-12-18T00:01:05;101772.31;;;-0.66;88.85
71299;BME280;59083;47.974;21.722;2022-12-18T00:04:12;101776.56;;;-0.64;88.70
71299;BME280;59083;47.974;21.722;2022-12-18T00:07:15;101779.44;;;-0.53;88.54
71299;BME280;59083;47.974;21.722;2022-12-18T00:10:17;101778.78;;;-0.40;88.96
71299;BME280;59083;47.974;21.722;2022-12-18T00:13:18;101781.16;;;-0.36;88.50
71299;BME280;59083;47.974;21.722;2022-12-18T00:16:21;101793.91;;;-0.30;88.10
71299;BME280;59083;47.974;21.722;2022-12-18T00:19:22;101797.38;;;-0.29;87.88
71299;BME280;59083;47.974;21.722;2022-12-18T00:22:24;101801.78;;;-0.30;87.45
71299;BME280;59083;47.974;21.722;2022-12-18T00:25:25;101817.28;;;-0.43;87.30
71299;BME280;59083;47.974;21.722;2022-12-18T00:28:26;101811.59;;;-0.51;86.89
71299;BME280;59083;47.974;21.722;2022-12-18T00:31:28;101811.78;;;-0.54;87.71
71299;BME280;59083;47.974;21.722;2022-12-18T00:34:29;101813.19;;;-0.64;88.20
71299;BME280;59083;47.974;21.722;2022-12-18T00:37:30;101828.91;;;-0.64;88.65
71299;BME280;59083;47.974;21.722;2022-12-18T00:40:32;101840.03;;;-0.60;88.80
71299;BME280;59083;47.974;21.722;2022-12-18T00:43:33;101840.22;;;-0.63;88.59
71299;BME280;59083;47.974;21.722;2022-12-18T00:46:34;101849.97;;;-0.67;88.74
71299;BME280;59083;47.974;21.722;2022-12-18T00:49:35;101852.78;;;-0.70;88.42
71299;BME280;59083;47.974;21.722;2022-12-18T00:52:37;101857.84;;;-0.67;88.79
71299;BME280;59083;47.974;21.722;2022-12-18T00:55:41;101865.69;;;-0.67;88.70
71299;BME280;59083;47.974;21.722;2022-12-18T00:58:43;101872.94;;;-0.72;88.88
71299;BME280;59083;47.974;21.722;2022-12-18T01:01:45;101880.00;;;-0.74;89.49
71299;BME280;59083;47.974;21.722;2022-12-18T01:04:47;101880.66;;;-0.69;89.26
71299;BME280;59083;47.974;21.722;2022-12-18T01:07:48;101876.94;;;-0.65;88.74
71299;BME280;59083;47.974;21.722;2022-12-18T01:10:50;101883.47;;;-0.73;88.80
71299;BME280;59083;47.974;21.722;2022-12-18T01:13:53;101892.78;;;-0.85;88.23
71299;BME280;59083;47.974;21.722;2022-12-18T01:16:56;101897.50;;;-0.92;88.59
71299;BME280;59083;47.974;21.722;2022-12-18T01:19:57;101907.25;;;-0.95;88.55
71299;BME280;59083;47.974;21.722;2022-12-18T01:22:59;101898.97;;;-1.03;89.46
71299;BME280;59083;47.974;21.722;2022-12-18T01:26:09;101900.47;;;-1.16;90.59
71299;BME280;59083;47.974;21.722;2022-12-18T01:29:11;101915.16;;;-1.14;90.63
71299;BME280;59083;47.974;21.722;2022-12-18T01:32:12;101906.62;;;-1.17;90.21
71299;BME280;59083;47.974;21.722;2022-12-18T01:35:13;101917.53;;;-1.27;90.51
71299;BME280;59083;47.974;21.722;2022-12-18T01:38:14;101914.31;;;-1.32;90.91
71299;BME280;59083;47.974;21.722;2022-12-18T01:41:18;101915.97;;;-1.31;90.84
71299;BME280;59083;47.974;21.722;2022-12-18T01:48:02;101928.56;;;-1.39;91.66
71299;BME280;59083;47.974;21.722;2022-12-18T01:51:04;101940.88;;;-1.41;91.58
71299;BME280;59083;47.974;21.722;2022-12-18T01:54:07;101937.50;;;-1.43;92.08
71299;BME280;59083;47.974;21.722;2022-12-18T01:57:08;101937.41;;;-1.41;92.27
71299;BME280;59083;47.974;21.722;2022-12-18T02:00:13;101942.50;;;-1.38;92.81
71299;BME280;59083;47.974;21.722;2022-12-18T02:03:15;101945.81;;;-1.35;93.41
71299;BME280;59083;47.974;21.722;2022-12-18T02:09:28;101946.09;;;-1.41;92.85
71299;BME280;59083;47.974;21.722;2022-12-18T02:12:48;101957.28;;;-1.37;92.23
71299;BME280;59083;47.974;21.722;2022-12-18T02:19:39;101961.94;;;-1.44;92.98
71299;BME280;59083;47.974;21.722;2022-12-18T02:22:53;101974.22;;;-1.46;92.81
71299;BME280;59083;47.974;21.722;2022-12-18T02:30:11;101985.25;;;-1.58;92.56
71299;BME280;59083;47.974;21.722;2022-12-18T02:33:13;101990.19;;;-1.52;92.24
71299;BME280;59083;47.974;21.722;2022-12-18T02:36:18;101988.47;;;-1.53;92.32
71299;BME280;59083;47.974;21.722;2022-12-18T02:39:23;101992.03;;;-1.54;92.64
71299;BME280;59083;47.974;21.722;2022-12-18T02:42:27;102000.63;;;-1.52;92.66
71299;BME280;59083;47.974;21.722;2022-12-18T02:45:29;101998.09;;;-1.53;93.10
71299;BME280;59083;47.974;21.722;2022-12-18T02:48:34;102002.91;;;-1.63;93.01
71299;BME280;59083;47.974;21.722;2022-12-18T02:51:45;102002.91;;;-1.63;92.96
71299;BME280;59083;47.974;21.722;2022-12-18T03:01:28;102004.88;;;-1.68;93.72
71299;BME280;59083;47.974;21.722;2022-12-18T03:04:43;102022.63;;;-1.76;93.58
71299;BME280;59083;47.974;21.722;2022-12-18T03:08:23;102017.84;;;-1.85;94.78
71299;BME280;59083;47.974;21.722;2022-12-18T03:11:28;102023.00;;;-1.84;95.53
71299;BME280;59083;47.974;21.722;2022-12-18T03:15:18;102035.91;;;-1.81;95.51
71299;BME280;59083;47.974;21.722;2022-12-18T03:18:47;102036.91;;;-1.83;95.92
71299;BME280;59083;47.974;21.722;2022-12-18T03:21:54;102039.38;;;-1.80;95.83
71299;BME280;59083;47.974;21.722;2022-12-18T03:24:59;102046.31;;;-1.79;95.48
71299;BME280;59083;47.974;21.722;2022-12-18T03:28:03;102039.59;;;-1.85;95.60
71299;BME280;59083;47.974;21.722;2022-12-18T03:31:11;102044.75;;;-1.83;94.90
71299;BME280;59083;47.974;21.722;2022-12-18T03:34:20;102045.50;;;-1.81;94.73
71299;BME280;59083;47.974;21.722;2022-12-18T03:37:23;102058.56;;;-1.81;94.46
71299;BME280;59083;47.974;21.722;2022-12-18T03:41:07;102066.16;;;-1.75;94.29
71299;BME280;59083;47.974;21.722;2022-12-18T03:44:27;102059.38;;;-1.79;93.85
71299;BME280;59083;47.974;21.722;2022-12-18T03:47:53;102077.28;;;-1.90;94.28
71299;BME280;59083;47.974;21.722;2022-12-18T03:51:05;102075.56;;;-1.91;94.45
71299;BME280;59083;47.974;21.722;2022-12-18T03:54:09;102083.34;;;-1.90;94.53
71299;BME280;59083;47.974;21.722;2022-12-18T03:57:20;102077.69;;;-1.99;94.15
71299;BME280;59083;47.974;21.722;2022-12-18T04:00:22;102087.28;;;-2.00;94.48
71299;BME280;59083;47.974;21.722;2022-12-18T04:03:28;102099.22;;;-1.94;94.31
71299;BME280;59083;47.974;21.722;2022-12-18T04:06:34;102101.19;;;-1.99;94.36
71299;BME280;59083;47.974;21.722;2022-12-18T04:09:38;102098.69;;;-2.02;94.44
71299;BME280;59083;47.974;21.722;2022-12-18T04:12:41;102103.84;;;-2.01;94.69
71299;BME280;59083;47.974;21.722;2022-12-18T04:15:43;102112.41;;;-1.97;94.30
71299;BME280;59083;47.974;21.722;2022-12-18T04:18:45;102111.87;;;-2.05;94.61
71299;BME280;59083;47.974;21.722;2022-12-18T04:21:48;102124.00;;;-2.04;94.93
71299;BME280;59083;47.974;21.722;2022-12-18T04:24:49;102119.72;;;-2.05;94.85
71299;BME280;59083;47.974;21.722;2022-12-18T04:27:51;102123.28;;;-2.08;95.26
71299;BME280;59083;47.974;21.722;2022-12-18T04:30:52;102123.16;;;-2.05;95.17
71299;BME280;59083;47.974;21.722;2022-12-18T04:33:54;102134.69;;;-2.11;95.72
71299;BME280;59083;47.974;21.722;2022-12-18T04:36:56;102130.41;;;-2.12;95.76
71299;BME280;59083;47.974;21.722;2022-12-18T04:39:58;102135.37;;;-2.05;95.51
71299;BME280;59083;47.974;21.722;2022-12-18T04:42:59;102132.22;;;-2.14;96.34
71299;BME280;59083;47.974;21.722;2022-12-18T04:46:05;102141.13;;;-2.18;95.64
71299;BME280;59083;47.974;21.722;2022-12-18T04:49:06;102156.38;;;-2.29;95.70
71299;BME280;59083;47.974;21.722;2022-12-18T04:52:07;102166.91;;;-2.32;95.90
71299;BME280;59083;47.974;21.722;2022-12-18T04:55:09;102154.72;;;-2.31;95.54
71299;BME280;59083;47.974;21.722;2022-12-18T04:58:10;102160.66;;;-2.28;95.61
71299;BME280;59083;47.974;21.722;2022-12-18T05:01:13;102168.47;;;-2.28;95.48
71299;BME280;59083;47.974;21.722;2022-12-18T05:04:15;102175.72;;;-2.34;95.42
71299;BME280;59083;47.974;21.722;2022-12-18T05:07:16;102176.44;;;-2.31;95.43
71299;BME280;59083;47.974;21.722;2022-12-18T05:10:17;102176.94;;;-2.43;93.76
71299;BME280;59083;47.974;21.722;2022-12-18T05:13:18;102187.31;;;-2.41;93.86
71299;BME280;59083;47.974;21.722;2022-12-18T05:16:19;102192.81;;;-2.49;93.07
71299;BME280;59083;47.974;21.722;2022-12-18T05:19:20;102191.34;;;-2.56;93.13
71299;BME280;59083;47.974;21.722;2022-12-18T05:22:22;102208.63;;;-2.52;92.96
71299;BME280;59083;47.974;21.722;2022-12-18T05:25:23;102206.41;;;-2.63;92.13
71299;BME280;59083;47.974;21.722;2022-12-18T05:28:27;102204.25;;;-2.52;92.64
71299;BME280;59083;47.974;21.722;2022-12-18T05:31:29;102223.41;;;-2.53;92.09
71299;BME280;59083;47.974;21.722;2022-12-18T05:34:30;102224.72;;;-2.64;91.39
71299;BME280;59083;47.974;21.722;2022-12-18T05:37:31;102235.34;;;-2.69;91.74
71299;BME280;59083;47.974;21.722;2022-12-18T05:40:33;102239.75;;;-2.71;91.52
71299;BME280;59083;47.974;21.722;2022-12-18T05:43:35;102239.03;;;-2.74;91.66
71299;BME280;59083;47.974;21.722;2022-12-18T05:46:37;102247.63;;;-2.72;91.53
71299;BME280;59083;47.974;21.722;2022-12-18T05:49:41;102253.84;;;-2.75;91.04
71299;BME280;59083;47.974;21.722;2022-12-18T05:52:42;102256.63;;;-2.79;90.66
71299;BME280;59083;47.974;21.722;2022-12-18T05:55:43;102263.28;;;-2.72;90.48
71299;BME280;59083;47.974;21.722;2022-12-18T05:58:46;102265.34;;;-2.80;89.84
71299;BME280;59083;47.974;21.722;2022-12-18T06:01:47;102269.06;;;-2.87;89.33
71299;BME280;59083;47.974;21.722;2022-12-18T06:04:48;102266.28;;;-2.83;90.15
71299;BME280;59083;47.974;21.722;2022-12-18T06:07:49;102268.22;;;-2.88;89.56
71299;BME280;59083;47.974;21.722;2022-12-18T06:10:52;102277.78;;;-2.88;90.10
71299;BME280;59083;47.974;21.722;2022-12-18T06:13:54;102287.44;;;-2.90;90.05
71299;BME280;59083;47.974;21.722;2022-12-18T06:16:56;102288.44;;;-2.95;89.58
71299;BME280;59083;47.974;21.722;2022-12-18T06:19:57;102289.25;;;-2.93;89.67
71299;BME280;59083;47.974;21.722;2022-12-18T06:22:59;102294.00;;;-3.04;89.91
71299;BME280;59083;47.974;21.722;2022-12-18T06:26:08;102295.69;;;-3.03;89.64
71299;BME280;59083;47.974;21.722;2022-12-18T06:29:09;102305.00;;;-2.96;89.87
71299;BME280;59083;47.974;21.722;2022-12-18T06:32:10;102310.53;;;-3.05;89.58
71299;BME280;59083;47.974;21.722;2022-12-18T06:35:12;102310.56;;;-3.06;89.63
71299;BME280;59083;47.974;21.722;2022-12-18T06:38:13;102323.25;;;-2.96;89.58
71299;BME280;59083;47.974;21.722;2022-12-18T06:41:17;102324.84;;;-2.92;89.50
71299;BME280;59083;47.974;21.722;2022-12-18T06:44:18;102326.88;;;-3.00;89.25
71299;BME280;59083;47.974;21.722;2022-12-18T06:47:20;102323.38;;;-2.99;89.27
71299;BME280;59083;47.974;21.722;2022-12-18T06:50:21;102329.94;;;-2.88;89.27
71299;BME280;59083;47.974;21.722;2022-12-18T06:53:22;102338.41;;;-2.82;89.69
71299;BME280;59083;47.974;21.722;2022-12-18T06:56:23;102337.94;;;-2.93;89.01
71299;BME280;59083;47.974;21.722;2022-12-18T06:59:25;102337.78;;;-2.88;89.53
71299;BME280;59083;47.974;21.722;2022-12-18T07:02:26;102345.50;;;-2.85;89.42
71299;BME280;59083;47.974;21.722;2022-12-18T07:05:27;102354.66;;;-2.74;88.49
71299;BME280;59083;47.974;21.722;2022-12-18T07:08:29;102357.09;;;-2.69;88.04
71299;BME280;59083;47.974;21.722;2022-12-18T07:11:32;102373.50;;;-2.66;87.80
71299;BME280;59083;47.974;21.722;2022-12-18T07:14:33;102377.62;;;-2.60;87.24
71299;BME280;59083;47.974;21.722;2022-12-18T07:17:35;102380.94;;;-2.55;86.50
71299;BME280;59083;47.974;21.722;2022-12-18T07:20:36;102387.66;;;-2.48;86.68
71299;BME280;59083;47.974;21.722;2022-12-18T07:23:37;102394.03;;;-2.32;86.17
71299;BME280;59083;47.974;21.722;2022-12-18T07:26:39;102392.31;;;-2.33;86.43
71299;BME280;59083;47.974;21.722;2022-12-18T07:29:40;102405.28;;;-2.30;85.25
71299;BME280;59083;47.974;21.722;2022-12-18T07:32:41;102406.84;;;-2.26;84.97
71299;BME280;59083;47.974;21.722;2022-12-18T07:35:42;102411.59;;;-2.37;84.95
71299;BME280;59083;47.974;21.722;2022-12-18T07:38:46;102408.91;;;-2.34;85.00
71299;BME280;59083;47.974;21.722;2022-12-18T07:41:48;102408.16;;;-2.37;84.55
71299;BME280;59083;47.974;21.722;2022-12-18T07:45:09;102410.03;;;-2.41;84.92
71299;BME280;59083;47.974;21.722;2022-12-18T07:48:11;102418.62;;;-2.39;84.62
71299;BME280;59083;47.974;21.722;2022-12-18T07:51:13;102432.28;;;-2.31;84.61
71299;BME280;59083;47.974;21.722;2022-12-18T07:54:14;102428.28;;;-2.41;84.65
71299;BME280;59083;47.974;21.722;2022-12-18T07:57:16;102427.19;;;-2.34;84.22
71299;BME280;59083;47.974;21.722;2022-12-18T08:00:18;102433.97;;;-2.30;83.43
71299;BME280;59083;47.974;21.722;2022-12-18T08:03:20;102437.72;;;-2.37;83.37
71299;BME280;59083;47.974;21.722;2022-12-18T08:06:21;102442.38;;;-2.22;83.27
71299;BME280;59083;47.974;21.722;2022-12-18T08:09:22;102451.63;;;-2.12;83.33
71299;BME280;59083;47.974;21.722;2022-12-18T08:12:23;102454.44;;;-2.18;82.85
71299;BME280;59083;47.974;21.722;2022-12-18T08:15:25;102450.22;;;-2.22;82.75
71299;BME280;59083;47.974;21.722;2022-12-18T08:18:26;102455.44;;;-2.22;82.68
71299;BME280;59083;47.974;21.722;2022-12-18T08:21:30;102464.75;;;-2.15;82.65
71299;BME280;59083;47.974;21.722;2022-12-18T08:24:31;102458.62;;;-2.14;82.07
71299;BME280;59083;47.974;21.722;2022-12-18T08:27:32;102457.16;;;-2.21;82.28
71299;BME280;59083;47.974;21.722;2022-12-18T08:30:34;102461.38;;;-2.17;82.44
71299;BME280;59083;47.974;21.722;2022-12-18T08:33:37;102469.91;;;-2.12;81.84
71299;BME280;59083;47.974;21.722;2022-12-18T08:36:38;102469.63;;;-2.29;81.53
71299;BME280;59083;47.974;21.722;2022-12-18T08:39:40;102475.34;;;-2.18;82.54
71299;BME280;59083;47.974;21.722;2022-12-18T08:42:41;102482.81;;;-2.09;81.11
71299;BME280;59083;47.974;21.722;2022-12-18T08:46:00;102488.41;;;-1.94;81.55
71299;BME280;59083;47.974;21.722;2022-12-18T08:49:02;102489.59;;;-2.03;81.38
71299;BME280;59083;47.974;21.722;2022-12-18T08:52:04;102489.56;;;-1.78;81.02
71299;BME280;59083;47.974;21.722;2022-12-18T08:55:05;102493.03;;;-1.78;80.12
71299;BME280;59083;47.974;21.722;2022-12-18T08:58:07;102493.31;;;-1.85;80.53
71299;BME280;59083;47.974;21.722;2022-12-18T09:01:09;102493.31;;;-1.85;80.57
71299;BME280;59083;47.974;21.722;2022-12-18T09:04:11;102500.00;;;-1.78;80.44
71299;BME280;59083;47.974;21.722;2022-12-18T09:07:12;102506.81;;;-1.74;79.64
71299;BME280;59083;47.974;21.722;2022-12-18T09:10:14;102497.44;;;-1.80;79.46
71299;BME280;59083;47.974;21.722;2022-12-18T09:13:16;102502.44;;;-1.74;79.10
71299;BME280;59083;47.974;21.722;2022-12-18T09:16:18;102507.28;;;-1.63;79.90
71299;BME280;59083;47.974;21.722;2022-12-18T09:19:20;102511.03;;;-1.70;79.19
71299;BME280;59083;47.974;21.722;2022-12-18T09:22:21;102500.00;;;-1.78;79.09
71299;BME280;59083;47.974;21.722;2022-12-18T09:25:22;102509.00;;;-1.62;79.05
71299;BME280;59083;47.974;21.722;2022-12-18T09:28:24;102514.84;;;-1.55;78.62
71299;BME280;59083;47.974;21.722;2022-12-18T09:31:25;102514.66;;;-1.51;79.00
71299;BME280;59083;47.974;21.722;2022-12-18T09:34:26;102525.00;;;-1.48;79.37
71299;BME280;59083;47.974;21.722;2022-12-18T09:37:27;102519.72;;;-1.46;78.51
71299;BME280;59083;47.974;21.722;2022-12-18T09:40:34;102522.09;;;-1.40;78.58
71299;BME280;59083;47.974;21.722;2022-12-18T09:43:41;102518.97;;;-1.27;77.84
71299;BME280;59083;47.974;21.722;2022-12-18T09:47:16;102516.91;;;-1.18;77.83
71299;BME280;59083;47.974;21.722;2022-12-18T09:50:38;102525.53;;;-1.16;77.96
71299;BME280;59083;47.974;21.722;2022-12-18T09:53:44;102523.34;;;-1.05;78.53
71299;BME280;59083;47.974;21.722;2022-12-18T09:56:48;102523.19;;;-1.01;77.59
71299;BME280;59083;47.974;21.722;2022-12-18T09:59:53;102527.91;;;-1.10;77.51
71299;BME280;59083;47.974;21.722;2022-12-18T10:03:01;102528.97;;;-1.14;77.70
71299;BME280;59083;47.974;21.722;2022-12-18T10:09:25;102536.38;;;-0.82;76.86
71299;BME280;59083;47.974;21.722;2022-12-18T10:12:47;102520.97;;;-0.68;76.80
71299;BME280;59083;47.974;21.722;2022-12-18T10:26:03;102517.81;;;-0.76;76.58
71299;BME280;59083;47.974;21.722;2022-12-18T10:29:12;102519.59;;;-0.76;76.25
71299;BME280;59083;47.974;21.722;2022-12-18T10:32:29;102514.28;;;-0.75;76.33
71299;BME280;59083;47.974;21.722;2022-12-18T10:35:31;102511.19;;;-0.63;76.68
71299;BME280;59083;47.974;21.722;2022-12-18T10:38:32;102523.22;;;-0.59;76.13
71299;BME280;59083;47.974;21.722;2022-12-18T10:41:33;102520.72;;;-0.62;75.86
71299;BME280;59083;47.974;21.722;2022-12-18T10:44:35;102514.56;;;-0.61;75.82
71299;BME280;59083;47.974;21.722;2022-12-18T10:47:42;102511.19;;;-0.63;76.60
71299;BME280;59083;47.974;21.722;2022-12-18T10:50:47;102513.88;;;-0.44;75.92
71299;BME280;59083;47.974;21.722;2022-12-18T10:53:56;102517.84;;;-0.56;75.01
71299;BME280;59083;47.974;21.722;2022-12-18T11:00:38;102510.81;;;-0.75;75.71
71299;BME280;59083;47.974;21.722;2022-12-18T11:04:08;102520.56;;;-0.57;75.95
71299;BME280;59083;47.974;21.722;2022-12-18T11:07:10;102523.56;;;-0.68;76.14
71299;BME280;59083;47.974;21.722;2022-12-18T11:10:19;102524.53;;;-0.49;75.11
71299;BME280;59083;47.974;21.722;2022-12-18T11:13:22;102519.25;;;-0.47;75.24
71299;BME280;59083;47.974;21.722;2022-12-18T11:16:26;102515.78;;;-0.48;75.15
71299;BME280;59083;47.974;21.722;2022-12-18T11:19:34;102522.53;;;-0.42;75.76
71299;BME280;59083;47.974;21.722;2022-12-18T11:22:37;102515.63;;;-0.45;75.93
71299;BME280;59083;47.974;21.722;2022-12-18T11:25:39;102523.88;;;-0.54;75.91
71299;BME280;59083;47.974;21.722;2022-12-18T11:28:47;102524.69;;;-0.52;76.61
71299;BME280;59083;47.974;21.722;2022-12-18T11:31:50;102517.47;;;-0.47;76.76
71299;BME280;59083;47.974;21.722;2022-12-18T11:34:58;102505.81;;;-0.60;76.07
71299;BME280;59083;47.974;21.722;2022-12-18T11:38:16;102512.84;;;-0.40;75.95
71299;BME280;59083;47.974;21.722;2022-12-18T11:41:39;102521.59;;;-0.41;76.42
71299;BME280;59083;47.974;21.722;2022-12-18T11:48:22;102514.59;;;-0.40;76.33
71299;BME280;59083;47.974;21.722;2022-12-18T11:51:33;102515.53;;;-0.42;76.56
71299;BME280;59083;47.974;21.722;2022-12-18T11:54:36;102524.41;;;-0.46;76.35
71299;BME280;59083;47.974;21.722;2022-12-18T12:17:35;102510.12;;;-0.38;76.49
71299;BME280;59083;47.974;21.722;2022-12-18T12:27:29;102503.19;;;-0.39;76.61
71299;BME280;59083;47.974;21.722;2022-12-18T12:33:54;102504.91;;;-0.38;75.95
71299;BME280;59083;47.974;21.722;2022-12-18T12:40:01;102512.25;;;-0.47;76.47
71299;BME280;59083;47.974;21.722;2022-12-18T12:43:12;102516.88;;;-0.53;76.23
71299;BME280;59083;47.974;21.722;2022-12-18T12:46:17;102516.03;;;-0.54;76.49
71299;BME280;59083;47.974;21.722;2022-12-18T12:49:22;102513.34;;;-0.52;76.62
71299;BME280;59083;47.974;21.722;2022-12-18T12:52:28;102516.75;;;-0.50;76.64
71299;BME280;59083;47.974;21.722;2022-12-18T12:55:32;102520.88;;;-0.45;76.46
71299;BME280;59083;47.974;21.722;2022-12-18T13:02:29;102517.66;;;-0.51;77.30
71299;BME280;59083;47.974;21.722;2022-12-18T13:08:58;102521.91;;;-0.69;77.13
71299;BME280;59083;47.974;21.722;2022-12-18T13:12:11;102531.84;;;-0.57;76.88
71299;BME280;59083;47.974;21.722;2022-12-18T13:18:54;102546.38;;;-0.70;77.76
71299;BME280;59083;47.974;21.722;2022-12-18T13:21:57;102546.38;;;-0.70;77.20
71299;BME280;59083;47.974;21.722;2022-12-18T13:24:59;102553.56;;;-0.75;77.70
71299;BME280;59083;47.974;21.722;2022-12-18T13:28:21;102555.84;;;-0.89;78.20
71299;BME280;59083;47.974;21.722;2022-12-18T13:34:41;102557.31;;;-0.82;77.80
71299;BME280;59083;47.974;21.722;2022-12-18T13:37:44;102562.66;;;-0.85;77.94
71299;BME280;59083;47.974;21.722;2022-12-18T13:40:55;102565.28;;;-0.85;78.37
71299;BME280;59083;47.974;21.722;2022-12-18T13:44:11;102573.13;;;-0.85;78.95
71299;BME280;59083;47.974;21.722;2022-12-18T13:47:35;102570.47;;;-0.84;78.66
71299;BME280;59083;47.974;21.722;2022-12-18T13:50:38;102574.50;;;-0.75;78.53
71299;BME280;59083;47.974;21.722;2022-12-18T13:53:48;102573.25;;;-0.66;77.84
71299;BME280;59083;47.974;21.722;2022-12-18T13:56:51;102587.16;;;-0.64;78.20
71299;BME280;59083;47.974;21.722;2022-12-18T13:59:52;102593.97;;;-0.60;77.90
71299;BME280;59083;47.974;21.722;2022-12-18T14:02:54;102596.63;;;-0.62;78.21
71299;BME280;59083;47.974;21.722;2022-12-18T14:06:02;102602.72;;;-0.61;78.04
71299;BME280;59083;47.974;21.722;2022-12-18T14:09:05;102607.47;;;-0.71;78.31
71299;BME280;59083;47.974;21.722;2022-12-18T14:12:06;102614.28;;;-0.67;78.50
71299;BME280;59083;47.974;21.722;2022-12-18T14:15:36;102616.13;;;-0.69;78.83
71299;BME280;59083;47.974;21.722;2022-12-18T14:18:55;102626.59;;;-0.69;78.51
71299;BME280;59083;47.974;21.722;2022-12-18T14:21:58;102623.19;;;-0.71;78.33
71299;BME280;59083;47.974;21.722;2022-12-18T14:28:14;102640.84;;;-0.76;77.88
71299;BME280;59083;47.974;21.722;2022-12-18T14:31:24;102644.00;;;-0.68;77.67
71299;BME280;59083;47.974;21.722;2022-12-18T14:34:26;102646.97;;;-0.77;78.18
71299;BME280;59083;47.974;21.722;2022-12-18T14:37:27;102644.34;;;-0.77;78.40
71299;BME280;59083;47.974;21.722;2022-12-18T14:40:28;102662.69;;;-0.77;78.38
71299;BME280;59083;47.974;21.722;2022-12-18T14:43:35;102637.22;;;-0.73;78.37
71299;BME280;59083;47.974;21.722;2022-12-18T14:46:47;102651.34;;;-0.77;78.77
71299;BME280;59083;47.974;21.722;2022-12-18T14:49:49;102649.47;;;-0.74;78.57
71299;BME280;59083;47.974;21.722;2022-12-18T14:52:50;102649.03;;;-0.85;78.82
71299;BME280;59083;47.974;21.722;2022-12-18T14:55:51;102643.34;;;-0.96;78.41
71299;BME280;59083;47.974;21.722;2022-12-18T15:08:38;102646.66;;;-1.14;79.00
71299;BME280;59083;47.974;21.722;2022-12-18T15:14:40;102654.63;;;-1.17;79.07
71299;BME280;59083;47.974;21.722;2022-12-18T15:17:42;102658.69;;;-1.34;79.88
71299;BME280;59083;47.974;21.722;2022-12-18T15:20:46;102655.28;;;-1.36;79.50
71299;BME280;59083;47.974;21.722;2022-12-18T15:23:51;102659.94;;;-1.44;79.99
71299;BME280;59083;47.974;21.722;2022-12-18T15:26:53;102666.41;;;-1.54;80.99
71299;BME280;59083;47.974;21.722;2022-12-18T15:33:24;102670.34;;;-1.67;81.66
71299;BME280;59083;47.974;21.722;2022-12-18T15:36:29;102675.66;;;-1.70;81.91
71299;BME280;59083;47.974;21.722;2022-12-18T15:39:31;102667.41;;;-1.83;82.44
71299;BME280;59083;47.974;21.722;2022-12-18T15:42:32;102677.56;;;-1.75;82.54
71299;BME280;59083;47.974;21.722;2022-12-18T15:45:52;102686.44;;;-1.79;82.31
71299;BME280;59083;47.974;21.722;2022-12-18T15:48:55;102681.28;;;-1.82;82.49
71299;BME280;59083;47.974;21.722;2022-12-18T15:51:59;102684.72;;;-1.80;82.04
71299;BME280;59083;47.974;21.722;2022-12-18T15:55:00;102686.50;;;-1.82;81.90
71299;BME280;59083;47.974;21.722;2022-12-18T15:58:20;102694.59;;;-1.88;82.30
71299;BME280;59083;47.974;21.722;2022-12-18T16:01:23;102698.25;;;-1.94;82.45
71299;BME280;59083;47.974;21.722;2022-12-18T16:04:25;102703.41;;;-1.92;81.94
71299;BME280;59083;47.974;21.722;2022-12-18T16:07:26;102716.38;;;-1.89;82.90
71299;BME280;59083;47.974;21.722;2022-12-18T16:10:27;102722.47;;;-1.89;82.60
71299;BME280;59083;47.974;21.722;2022-12-18T16:13:29;102721.63;;;-1.89;82.62
71299;BME280;59083;47.974;21.722;2022-12-18T16:16:30;102718.00;;;-1.85;82.57
71299;BME280;59083;47.974;21.722;2022-12-18T16:19:31;102717.87;;;-1.82;82.43
71299;BME280;59083;47.974;21.722;2022-12-18T16:22:32;102713.63;;;-1.85;82.62
71299;BME280;59083;47.974;21.722;2022-12-18T16:25:34;102729.84;;;-1.75;83.49
71299;BME280;59083;47.974;21.722;2022-12-18T16:28:35;102728.25;;;-1.79;83.90
71299;BME280;59083;47.974;21.722;2022-12-18T16:31:37;102723.00;;;-1.79;83.48
71299;BME280;59083;47.974;21.722;2022-12-18T16:34:38;102704.47;;;-1.72;83.15
71299;BME280;59083;47.974;21.722;2022-12-18T16:37:40;102708.84;;;-1.72;82.29
71299;BME280;59083;47.974;21.722;2022-12-18T16:40:42;102718.53;;;-1.76;82.47
71299;BME280;59083;47.974;21.722;2022-12-18T16:44:03;102726.28;;;-1.73;82.81
71299;BME280;59083;47.974;21.722;2022-12-18T16:47:04;102728.97;;;-1.76;82.36
71299;BME280;59083;47.974;21.722;2022-12-18T16:50:06;102728.13;;;-1.76;82.41
71299;BME280;59083;47.974;21.722;2022-12-18T16:53:08;102737.09;;;-1.83;82.46
71299;BME280;59083;47.974;21.722;2022-12-18T16:56:09;102747.34;;;-1.77;82.32
71299;BME280;59083;47.974;21.722;2022-12-18T16:59:11;102745.44;;;-1.72;82.40
71299;BME280;59083;47.974;21.722;2022-12-18T17:02:15;102759.28;;;-1.70;81.89
71299;BME280;59083;47.974;21.722;2022-12-18T17:05:17;102764.31;;;-1.64;81.17
71299;BME280;59083;47.974;21.722;2022-12-18T17:08:18;102767.53;;;-1.56;81.57
71299;BME280;59083;47.974;21.722;2022-12-18T17:11:20;102771.25;;;-1.63;81.55
71299;BME280;59083;47.974;21.722;2022-12-18T17:14:23;102769.66;;;-1.67;81.58
71299;BME280;59083;47.974;21.722;2022-12-18T17:17:24;102772.97;;;-1.62;81.92
71299;BME280;59083;47.974;21.722;2022-12-18T17:20:25;102769.13;;;-1.52;81.58
71299;BME280;59083;47.974;21.722;2022-12-18T17:23:28;102769.34;;;-1.58;80.77
71299;BME280;59083;47.974;21.722;2022-12-18T17:26:29;102768.28;;;-1.52;81.31
71299;BME280;59083;47.974;21.722;2022-12-18T17:29:31;102772.84;;;-1.59;80.78
71299;BME280;59083;47.974;21.722;2022-12-18T17:32:32;102769.34;;;-1.58;81.27
71299;BME280;59083;47.974;21.722;2022-12-18T17:35:33;102783.09;;;-1.53;81.76
71299;BME280;59083;47.974;21.722;2022-12-18T17:38:35;102779.91;;;-1.61;80.35
71299;BME280;59083;47.974;21.722;2022-12-18T17:41:36;102778.28;;;-1.65;80.08